Time;durP1;ratioP1;P1;durP2;ratioP2;P2;SDS_P1;SDS_P2;PMS_P1;PMS_P2;Temp;Humidity;BMP_temperature;BMP_pressure;BME280_temperature;BME280_humidity;BME280_pressure;Samples;Min_cycle;Max_cycle;Signal;HPM_P1;HPM_P2
2022/10/26 00:01:06;;;;;;;32.63;17.92;;;;;;;14.54;100.00;100332.13;5013319;28;20500;-73
2022/10/26 00:03:34;;;;;;;27.17;18.45;;;;;;;14.09;100.00;100304.88;5014624;28;20544;-73
2022/10/26 00:06:05;;;;;;;31.50;19.33;;;;;;;14.06;100.00;100289.66;5013433;28;20060;-73
2022/10/26 00:08:31;;;;;;;31.50;18.13;;;;;;;14.12;100.00;100266.41;5014258;28;20037;-74
2022/10/26 00:10:57;;;;;;;38.00;19.45;;;;;;;14.26;100.00;100279.50;5013386;28;20409;-74
2022/10/26 00:13:22;;;;;;;29.40;19.63;;;;;;;14.26;100.00;100299.97;5013336;28;20028;-74
2022/10/26 00:15:48;;;;;;;32.95;19.83;;;;;;;14.37;100.00;100300.41;5014179;28;20404;-73
2022/10/26 00:18:13;;;;;;;37.78;21.13;;;;;;;14.78;100.00;100318.38;5014317;28;20037;-74
2022/10/26 00:20:39;;;;;;;34.85;21.48;;;;;;;14.34;100.00;100277.53;5014407;28;20037;-74
2022/10/26 00:23:04;;;;;;;35.20;21.77;;;;;;;14.66;100.00;100328.25;5012999;28;20030;-75
2022/10/26 00:25:30;;;;;;;34.53;22.02;;;;;;;14.21;100.00;100258.38;5012538;28;20156;-75
2022/10/26 00:27:55;;;;;;;32.00;21.30;;;;;;;14.31;100.00;100280.19;5012932;28;20480;-74
2022/10/26 00:30:21;;;;;;;38.72;22.77;;;;;;;14.31;100.00;100292.97;5014289;28;20412;-75
2022/10/26 00:32:46;;;;;;;42.40;22.45;;;;;;;14.36;100.00;100293.66;5014046;28;20176;-74
2022/10/26 00:35:12;;;;;;;42.33;23.65;;;;;;;14.43;100.00;100315.53;5014186;28;20065;-75
2022/10/26 00:37:37;;;;;;;41.65;22.73;;;;;;;14.35;100.00;100291.97;5014111;28;20096;-74
2022/10/26 00:40:03;;;;;;;36.33;22.13;;;;;;;14.57;100.00;100329.47;5012401;28;20032;-75
2022/10/26 00:42:28;;;;;;;40.40;22.85;;;;;;;14.22;100.00;100295.88;5013535;28;20034;-75
2022/10/26 00:44:54;;;;;;;38.85;23.38;;;;;;;14.72;100.00;100346.78;5012838;28;20022;-75
2022/10/26 00:47:34;;;;;;;31.73;21.92;;;;;;;14.35;100.00;100343.97;5013531;28;20034;-74
2022/10/26 00:50:14;;;;;;;37.38;21.77;;;;;;;14.20;100.00;100287.41;5012689;28;20405;-73
2022/10/26 00:52:40;;;;;;;41.90;22.80;;;;;;;14.61;100.00;100322.50;5012652;28;20381;-73
2022/10/26 00:55:07;;;;;;;42.78;21.92;;;;;;;14.60;100.00;100288.41;5012288;28;20095;-75
2022/10/26 00:57:34;;;;;;;35.08;20.98;;;;;;;14.97;100.00;100333.03;5012266;28;20416;-74
2022/10/26 01:00:00;;;;;;;35.85;19.05;;;;;;;15.08;100.00;100326.56;5013545;28;20026;-73
2022/10/26 01:02:26;;;;;;;40.15;21.73;;;;;;;14.17;100.00;100234.66;5011975;28;20061;-73
2022/10/26 01:04:53;;;;;;;39.55;22.88;;;;;;;14.18;100.00;100294.31;5012359;28;20036;-73
2022/10/26 01:07:20;;;;;;;36.28;21.63;;;;;;;14.54;100.00;100287.78;5011608;28;20030;-75
2022/10/26 01:09:45;;;;;;;37.70;21.50;;;;;;;14.14;100.00;100231.41;5013164;28;20045;-74
2022/10/26 01:12:11;;;;;;;35.53;20.70;;;;;;;14.47;100.00;100265.91;5013225;28;20061;-74
2022/10/26 01:14:37;;;;;;;41.42;23.65;;;;;;;14.52;100.00;100330.53;5012979;28;20404;-74
2022/10/26 01:17:14;;;;;;;35.53;23.08;;;;;;;14.46;100.00;100346.13;5013116;28;20038;-73
2022/10/26 01:20:18;;;;;;;46.50;22.77;;;;;;;14.16;100.00;100281.59;5013294;28;20072;-74
2022/10/26 01:22:55;;;;;;;35.35;22.55;;;;;;;14.38;100.00;100320.81;5011955;28;20087;-73
2022/10/26 01:25:55;;;;;;;38.08;21.77;;;;;;;14.51;100.00;100339.94;5013197;28;20040;-73
2022/10/26 01:28:38;;;;;;;37.63;22.30;;;;;;;14.26;100.00;100346.00;5012809;28;20120;-74
2022/10/26 01:31:10;;;;;;;34.33;23.20;;;;;;;13.69;100.00;100282.47;5011861;28;20029;-73
2022/10/26 01:33:41;;;;;;;;;;;;;;;14.10;100.00;100337.22;5013287;28;20038;-73
2022/10/26 01:36:15;;;;;;;43.72;24.42;;;;;;;13.72;100.00;100293.44;5013053;28;20376;-73
2022/10/26 01:38:57;;;;;;;44.08;24.83;;;;;;;14.11;100.00;100356.78;5011683;28;20113;-73
2022/10/26 01:41:31;;;;;;;40.08;24.20;;;;;;;13.98;100.00;100343.63;5013110;28;20377;-73
2022/10/26 01:44:12;;;;;;;35.95;23.50;;;;;;;13.98;100.00;100325.72;5012660;28;20050;-75
2022/10/26 01:46:42;;;;;;;40.43;24.23;;;;;;;14.29;100.00;100339.09;5011500;28;20091;-73
2022/10/26 01:49:14;;;;;;;37.63;21.05;;;;;;;14.01;100.00;100279.59;5011146;28;20279;-73
2022/10/26 01:51:42;;;;;;;32.17;20.10;;;;;;;14.29;100.00;100292.19;5011522;28;20484;-73
2022/10/26 01:54:08;;;;;;;27.67;17.33;;;;;;;14.58;100.00;100279.94;5011468;28;20057;-73
2022/10/26 01:56:37;;;;;;;31.90;18.10;;;;;;;14.79;100.00;100334.59;5011462;28;20060;-74
2022/10/26 01:59:03;;;;;;;28.30;15.50;;;;;;;15.22;100.00;100352.44;5011095;28;20054;-72
2022/10/26 02:01:57;;;;;;;24.98;15.32;;;;;;;14.64;100.00;100281.44;5011349;28;20080;-73
2022/10/26 02:04:52;;;;;;;25.55;13.88;;;;;;;15.20;100.00;100351.69;4976838;28;20070;-74
2022/10/26 02:07:28;;;;;;;25.17;12.73;;;;;;;15.12;100.00;100287.13;5011407;28;20397;-75
2022/10/26 02:10:48;;;;;;;21.10;12.82;;;;;;;15.32;100.00;100328.13;5010583;28;20352;-74
2022/10/26 02:13:41;;;;;;;20.67;12.13;;;;;;;14.52;100.00;100233.28;4973490;28;20069;-73
2022/10/26 02:16:41;;;;;;;23.75;12.13;;;;;;;14.67;100.00;100227.56;5026499;28;20064;-73
2022/10/26 02:19:26;;;;;;;19.05;11.45;;;;;;;14.96;100.00;100313.41;5012233;28;20092;-74
2022/10/26 02:21:58;;;;;;;21.15;11.27;;;;;;;14.72;100.00;100259.75;5011163;28;20036;-76
2022/10/26 02:24:26;;;;;;;22.75;10.68;;;;;;;15.12;100.00;100352.88;5012044;28;20038;-73
2022/10/26 02:26:55;;;;;;;14.73;4.43;;;;;;;16.84;100.00;100266.47;5012015;28;20396;-73
2022/10/26 02:29:22;;;;;;;6.68;3.35;;;;;;;17.62;100.00;100309.66;5012109;28;20103;-74
2022/10/26 02:31:50;;;;;;;10.02;3.40;;;;;;;18.33;100.00;100321.28;5011828;28;20030;-72
2022/10/26 02:34:22;;;;;;;9.95;3.10;;;;;;;17.90;100.00;100290.16;5011568;28;20037;-74
2022/10/26 02:36:52;;;;;;;8.43;2.92;;;;;;;18.21;100.00;100289.34;5011933;28;20117;-72
2022/10/26 02:39:19;;;;;;;9.40;3.38;;;;;;;18.14;100.00;100290.59;5010318;28;20384;-74
2022/10/26 02:41:47;;;;;;;6.47;2.70;;;;;;;18.09;100.00;100305.44;5010457;28;20026;-73
2022/10/26 02:44:24;;;;;;;8.63;3.15;;;;;;;18.11;100.00;100361.06;5010942;28;20053;-73
2022/10/26 02:46:51;;;;;;;10.27;4.25;;;;;;;17.64;100.00;100354.13;5011666;28;20037;-72
2022/10/26 02:49:17;;;;;;;14.93;6.00;;;;;;;17.06;100.00;100354.44;5011789;28;20064;-73
2022/10/26 02:51:52;;;;;;;14.48;6.00;;;;;;;16.76;100.00;100362.75;5011001;28;20057;-73
2022/10/26 02:54:20;;;;;;;14.52;6.95;;;;;;;16.69;100.00;100366.53;5010263;28;20037;-74
2022/10/26 02:56:53;;;;;;;14.82;5.93;;;;;;;16.81;100.00;100364.22;5011366;28;20103;-73
2022/10/26 02:59:22;;;;;;;15.27;6.15;;;;;;;16.83;100.00;100371.84;5010937;28;20080;-72
2022/10/26 03:01:50;;;;;;;13.60;6.13;;;;;;;16.00;100.00;100329.47;5009745;28;20492;-72
2022/10/26 03:04:16;;;;;;;16.92;9.38;;;;;;;16.37;100.00;100330.31;5009917;28;20059;-73
2022/10/26 03:06:41;;;;;;;18.30;12.02;;;;;;;16.10;100.00;100372.59;5009613;28;20026;-73
2022/10/26 03:09:06;;;;;;;18.00;8.52;;;;;;;15.88;100.00;100365.91;5011365;28;20060;-73
2022/10/26 03:11:32;;;;;;;15.35;6.43;;;;;;;16.03;100.00;100349.84;5011142;28;20412;-73
2022/10/26 03:13:57;;;;;;;17.17;6.90;;;;;;;15.80;100.00;100340.63;5011340;28;20034;-72
2022/10/26 03:16:23;;;;;;;26.05;19.30;;;;;;;15.58;100.00;100340.72;5009983;28;20068;-72
2022/10/26 03:18:48;;;;;;;19.70;13.10;;;;;;;15.78;100.00;100403.09;5009586;28;20117;-71
2022/10/26 03:21:14;;;;;;;19.88;12.38;;;;;;;15.68;100.00;100387.28;5010738;28;20099;-72
2022/10/26 03:23:40;;;;;;;14.85;8.55;;;;;;;16.15;100.00;100400.63;5009819;28;20476;-71
2022/10/26 03:26:06;;;;;;;13.43;4.97;;;;;;;16.44;100.00;100334.25;5009650;28;20033;-72
2022/10/26 03:28:31;;;;;;;13.30;5.63;;;;;;;16.08;100.00;100388.97;5011083;28;20038;-73
2022/10/26 03:30:57;;;;;;;10.48;4.90;;;;;;;16.29;100.00;100413.66;5010479;28;20108;-73
2022/10/26 03:33:22;;;;;;;9.95;4.53;;;;;;;16.20;100.00;100360.22;5010646;28;20060;-73
2022/10/26 03:35:54;;;;;;;18.00;6.60;;;;;;;17.07;100.00;100419.50;5010809;28;20121;-70
2022/10/26 03:38:19;;;;;;;;;;;;;;;16.66;100.00;100434.25;5011381;28;20079;-71
2022/10/26 03:40:47;;;;;;;8.20;3.60;;;;;;;16.81;100.00;100430.16;5009441;28;19913;-74
2022/10/26 03:43:12;;;;;;;8.70;4.13;;;;;;;16.50;100.00;100369.09;5008083;28;20057;-71
2022/10/26 03:45:38;;;;;;;8.77;3.10;;;;;;;16.90;100.00;100415.16;5010498;28;20025;-71
2022/10/26 03:48:03;;;;;;;10.02;3.22;;;;;;;16.67;100.00;100366.59;5010394;28;20026;-72
2022/10/26 03:50:29;;;;;;;6.90;2.38;;;;;;;17.58;100.00;100416.16;5009012;28;20425;-71
2022/10/26 03:52:54;;;;;;;7.97;2.80;;;;;;;17.21;100.00;100410.22;5009182;28;20405;-72
2022/10/26 03:55:19;;;;;;;5.65;1.95;;;;;;;17.61;100.00;100406.53;5009137;28;20026;-70
2022/10/26 03:57:45;;;;;;;3.63;1.80;;;;;;;17.40;100.00;100407.59;5010501;28;20034;-75
2022/10/26 04:00:16;;;;;;;6.10;1.83;;;;;;;17.69;100.00;100430.16;5010437;28;20489;-70
2022/10/26 04:02:52;;;;;;;5.63;1.97;;;;;;;17.23;100.00;100374.19;5008820;28;20046;-72
2022/10/26 04:05:18;;;;;;;4.63;1.90;;;;;;;17.38;100.00;100354.56;5010587;28;20030;-70
2022/10/26 04:07:43;;;;;;;5.43;1.90;;;;;;;17.38;100.00;100413.69;5010070;28;20403;-71
2022/10/26 04:10:09;;;;;;;4.53;2.00;;;;;;;17.31;100.00;100396.00;5010036;28;20053;-70
2022/10/26 04:12:38;;;;;;;5.35;1.70;;;;;;;17.08;100.00;100377.47;5012753;28;20087;-73
2022/10/26 04:15:05;;;;;;;2.33;1.60;;;;;;;17.25;100.00;100431.47;5012231;28;20108;-71
2022/10/26 04:17:31;;;;;;;6.85;1.90;;;;;;;16.94;100.00;100385.00;5012444;28;20030;-71
2022/10/26 04:19:56;;;;;;;5.50;1.60;;;;;;;16.62;100.00;100388.25;5012409;28;20030;-72
2022/10/26 04:22:22;;;;;;;3.65;1.67;;;;;;;16.70;100.00;100411.84;5013988;28;20496;-69
2022/10/26 04:24:48;;;;;;;4.72;1.80;;;;;;;16.98;100.00;100436.16;5013494;28;20172;-72
2022/10/26 04:27:14;;;;;;;3.95;1.70;;;;;;;16.64;100.00;100415.50;5012171;28;20488;-72
2022/10/26 04:29:39;;;;;;;8.20;1.85;;;;;;;16.48;100.00;100327.22;5012658;28;20041;-75
2022/10/26 04:32:06;;;;;;;2.85;1.60;;;;;;;16.81;100.00;100443.84;5013684;28;20041;-73
2022/10/26 04:34:31;;;;;;;2.60;1.60;;;;;;;16.42;100.00;100379.69;5014024;28;20053;-70
2022/10/26 04:36:57;;;;;;;3.70;2.00;;;;;;;16.60;100.00;100446.56;5013578;28;20061;-72
2022/10/26 04:39:22;;;;;;;2.67;1.73;;;;;;;16.63;100.00;100457.50;5011947;28;20116;-69
2022/10/26 04:41:48;;;;;;;7.50;2.65;;;;;;;16.77;100.00;100419.19;5011826;28;20452;-69
2022/10/26 04:44:14;;;;;;;3.65;1.92;;;;;;;16.57;100.00;100409.00;5013783;28;20493;-73
2022/10/26 04:46:39;;;;;;;3.42;1.83;;;;;;;16.58;100.00;100420.13;5013485;28;20034;-72
2022/10/26 04:49:05;;;;;;;4.13;2.42;;;;;;;16.46;100.00;100426.56;5013602;28;20083;-71
2022/10/26 04:51:30;;;;;;;5.18;1.73;;;;;;;17.40;100.00;100459.00;5012134;28;20048;-70
2022/10/26 04:53:57;;;;;;;2.38;1.50;;;;;;;17.21;100.00;100363.94;5010771;28;20034;-71
2022/10/26 04:56:22;;;;;;;4.85;1.60;;;;;;;17.39;100.00;100441.91;5013052;28;20033;-68
2022/10/26 04:58:48;;;;;;;3.85;1.75;;;;;;;17.37;100.00;100463.47;5011564;28;20468;-71
2022/10/26 05:01:13;;;;;;;2.08;1.60;;;;;;;17.40;100.00;100430.72;5011248;28;20069;-69
2022/10/26 05:03:39;;;;;;;4.45;1.67;;;;;;;17.83;100.00;100478.31;5013343;28;20042;-70
2022/10/26 05:06:04;;;;;;;11.77;2.55;;;;;;;17.52;100.00;100481.59;5011972;28;20404;-70
2022/10/26 05:08:30;;;;;;;12.77;2.40;;;;;;;17.11;100.00;100434.69;5012427;28;20030;-71
2022/10/26 05:10:55;;;;;;;10.00;6.40;;;;;;;17.33;100.00;100483.34;5013179;28;20527;-70
2022/10/26 05:13:20;;;;;;;4.88;2.55;;;;;;;17.51;100.00;100481.66;5012639;28;20033;-71
2022/10/26 05:15:46;;;;;;;12.35;3.65;;;;;;;17.47;100.00;100490.41;5012696;28;20041;-70
2022/10/26 05:18:11;;;;;;;13.15;5.22;;;;;;;17.29;100.00;100495.50;5012816;28;20033;-70
2022/10/26 05:20:37;;;;;;;13.23;7.95;;;;;;;17.14;100.00;100457.69;5011572;28;20405;-70
2022/10/26 05:23:05;;;;;;;23.92;14.68;;;;;;;19.58;100.00;100500.72;5011604;28;20080;-70
2022/10/26 05:25:34;;;;;;;12.73;6.38;;;;;;;19.74;100.00;100504.09;5012159;28;20475;-69
2022/10/26 05:28:01;;;;;;;9.32;4.45;;;;;;;19.12;100.00;100495.56;5011353;28;20030;-69
2022/10/26 05:30:28;;;;;;;4.70;3.08;;;;;;;20.44;99.68;100446.56;5012472;28;20057;-69
2022/10/26 05:32:57;;;;;;;8.25;3.42;;;;;;;20.63;97.50;100500.53;5010985;28;20248;-70
2022/10/26 05:35:23;;;;;;;9.57;3.22;;;;;;;19.19;100.00;100415.25;5012387;28;20117;-70
2022/10/26 05:37:48;;;;;;;7.75;3.20;;;;;;;19.45;100.00;100524.72;5011242;28;20121;-70
2022/10/26 05:40:15;;;;;;;8.25;3.47;;;;;;;19.15;100.00;100449.03;5010863;28;20037;-71
2022/10/26 05:42:41;;;;;;;9.27;3.75;;;;;;;19.09;100.00;100429.56;5012090;28;20050;-70
2022/10/26 05:45:07;;;;;;;12.50;5.60;;;;;;;18.99;100.00;100516.06;5012436;28;20030;-70
2022/10/26 05:47:40;;;;;;;15.05;7.38;;;;;;;19.91;100.00;100512.63;5010751;28;20040;-70
2022/10/26 05:50:07;;;;;;;8.07;3.95;;;;;;;20.18;100.00;100470.53;5011891;28;20117;-70
2022/10/26 05:52:44;;;;;;;4.97;2.97;;;;;;;20.04;100.00;100495.50;5010490;28;20034;-70
2022/10/26 05:55:11;;;;;;;4.80;3.13;;;;;;;19.94;100.00;100528.75;5010549;28;20038;-70
2022/10/26 05:57:38;;;;;;;7.93;2.15;;;;;;;20.79;100.00;100541.78;5010718;28;20050;-70
2022/10/26 06:00:08;;;;;;;15.25;3.50;;;;;;;22.33;82.31;100524.88;5010707;28;20033;-70
2022/10/26 06:02:39;;;;;;;10.43;3.20;;;;;;;22.49;77.97;100553.16;5011902;28;20029;-70
2022/10/26 06:05:09;;;;;;;8.98;2.95;;;;;;;22.89;74.23;100544.34;5010474;28;20033;-71
2022/10/26 06:07:36;;;;;;;12.55;2.80;;;;;;;23.28;71.83;100568.31;5011723;28;20025;-71
2022/10/26 06:10:02;;;;;;;8.70;2.90;;;;;;;22.39;70.56;100498.53;5010537;28;20038;-71
2022/10/26 06:12:27;;;;;;;11.02;3.10;;;;;;;22.35;78.09;100557.53;5010605;28;20543;-70
2022/10/26 06:14:53;;;;;;;4.72;2.70;;;;;;;22.67;73.61;100528.59;5011686;28;20034;-73
2022/10/26 06:17:47;;;;;;;8.57;2.60;;;;;;;21.65;81.37;100578.56;5012042;28;20041;-70
2022/10/26 06:20:31;;;;;;;5.35;2.20;;;;;;;21.24;90.97;100532.03;5010162;28;20088;-71
2022/10/26 06:23:15;;;;;;;7.88;2.30;;;;;;;20.29;100.00;100580.97;5011731;28;20025;-70
2022/10/26 06:25:59;;;;;;;10.68;2.92;;;;;;;20.06;100.00;100578.84;5011336;28;20061;-71
2022/10/26 06:28:46;;;;;;;5.63;2.50;;;;;;;20.14;100.00;100574.94;5009897;28;20033;-70
2022/10/26 06:31:13;;;;;;;5.70;1.88;;;;;;;20.20;100.00;100581.50;5011328;28;20045;-71
2022/10/26 06:33:39;;;;;;;5.88;2.15;;;;;;;19.93;100.00;100529.66;5011131;28;20030;-71
2022/10/26 06:36:04;;;;;;;5.75;2.55;;;;;;;20.25;100.00;100572.56;5011052;28;20049;-70
2022/10/26 06:38:33;;;;;;;6.07;2.20;;;;;;;20.41;100.00;100568.16;5011495;28;20404;-71
2022/10/26 06:40:59;;;;;;;6.40;2.25;;;;;;;20.14;100.00;100514.69;5011491;28;20064;-70
2022/10/26 06:43:34;;;;;;;5.70;2.00;;;;;;;20.30;100.00;100539.53;5009888;28;20046;-70
2022/10/26 06:46:06;;;;;;;6.50;1.92;;;;;;;20.45;100.00;100554.16;5011014;28;20038;-70
2022/10/26 06:48:43;;;;;;;5.47;1.92;;;;;;;20.70;100.00;100569.84;5011628;28;20125;-70
2022/10/26 06:51:13;;;;;;;6.30;2.25;;;;;;;20.80;100.00;100512.44;5011141;28;20036;-70
2022/10/26 06:53:47;;;;;;;6.15;2.00;;;;;;;20.86;97.88;100585.25;5009838;28;20030;-70
2022/10/26 06:56:13;;;;;;;3.53;1.80;;;;;;;20.88;98.12;100580.81;5009617;28;20076;-70
2022/10/26 06:58:39;;;;;;;4.25;1.75;;;;;;;21.13;95.69;100582.78;5009972;28;20413;-70
2022/10/26 07:01:05;;;;;;;5.53;2.13;;;;;;;21.12;94.62;100600.06;5010976;28;20497;-70
2022/10/26 07:03:31;;;;;;;7.40;2.42;;;;;;;21.35;94.78;100589.09;5011096;28;20029;-71
2022/10/26 07:05:56;;;;;;;6.82;2.58;;;;;;;21.27;99.90;100587.94;5009758;28;20037;-70
2022/10/26 07:08:22;;;;;;;4.97;2.00;;;;;;;21.80;91.18;100587.97;5010524;28;20075;-71
2022/10/26 07:10:48;;;;;;;8.77;2.63;;;;;;;21.45;95.15;100592.78;5011216;28;20484;-71
2022/10/26 07:13:13;;;;;;;4.78;2.15;;;;;;;21.27;95.91;100606.06;5009543;28;20026;-71
2022/10/26 07:15:40;;;;;;;3.58;2.20;;;;;;;21.35;98.26;100604.63;5009435;28;20029;-70
2022/10/26 07:18:06;;;;;;;6.55;2.38;;;;;;;20.94;100.00;100559.78;5011128;28;20485;-71
2022/10/26 07:20:36;;;;;;;7.75;2.40;;;;;;;21.61;98.17;100597.00;5009683;28;20084;-72
2022/10/26 07:23:01;;;;;;;9.98;2.60;;;;;;;21.05;100.00;100572.91;5010737;28;20133;-71
2022/10/26 07:25:27;;;;;;;4.35;2.53;;;;;;;21.02;98.55;100556.75;5010989;28;20412;-71
2022/10/26 07:27:58;;;;;;;5.05;1.95;;;;;;;21.74;96.05;100606.47;5009508;28;20408;-71
2022/10/26 07:30:24;;;;;;;4.68;2.00;;;;;;;21.19;92.75;100543.59;5009010;28;20034;-71
2022/10/26 07:32:50;;;;;;;4.55;2.22;;;;;;;21.24;94.52;100550.16;5009991;28;20037;-71
2022/10/26 07:35:15;;;;;;;6.18;2.10;;;;;;;22.07;89.09;100591.38;5010441;28;20026;-71
2022/10/26 07:37:41;;;;;;;5.25;2.50;;;;;;;21.73;88.59;100612.56;5009269;28;20037;-70
2022/10/26 07:40:06;;;;;;;6.15;2.45;;;;;;;21.86;86.84;100613.50;5009228;28;20385;-70
2022/10/26 07:42:32;;;;;;;6.35;2.63;;;;;;;21.43;88.14;100566.16;5008950;28;20026;-71
2022/10/26 07:44:58;;;;;;;4.55;1.90;;;;;;;21.43;87.90;100552.41;5009367;28;20033;-71
2022/10/26 07:47:23;;;;;;;3.30;1.67;;;;;;;21.72;87.82;100556.56;5011765;28;20129;-71
2022/10/26 07:49:49;;;;;;;3.08;1.65;;;;;;;22.30;84.30;100613.19;5014091;28;20582;-71
2022/10/26 07:52:14;;;;;;;4.68;1.95;;;;;;;21.92;85.78;100610.50;5013390;28;20038;-71
2022/10/26 07:54:39;;;;;;;6.43;2.10;;;;;;;21.73;84.62;100560.78;5013326;28;20069;-71
2022/10/26 07:57:05;;;;;;;5.47;2.13;;;;;;;22.12;82.96;100594.50;5013025;28;20076;-71
2022/10/26 07:59:30;;;;;;;4.07;2.08;;;;;;;22.08;85.62;100608.59;5012959;28;20061;-73
2022/10/26 08:01:56;;;;;;;5.13;2.08;;;;;;;21.79;83.16;100513.78;5014149;28;20048;-71
2022/10/26 08:04:21;;;;;;;3.83;2.00;;;;;;;21.82;83.25;100560.25;5014012;28;20033;-72
2022/10/26 08:06:47;;;;;;;9.52;2.38;;;;;;;21.88;83.60;100566.78;5013694;28;20038;-72
2022/10/26 08:09:13;;;;;;;6.32;2.63;;;;;;;22.40;85.10;100614.25;5012750;28;20033;-72
2022/10/26 08:11:38;;;;;;;5.40;2.30;;;;;;;21.85;85.00;100608.41;5014024;28;20038;-73
2022/10/26 08:14:04;;;;;;;4.90;1.85;;;;;;;21.47;87.80;100559.88;5014220;28;20467;-72
2022/10/26 08:16:30;;;;;;;5.93;2.00;;;;;;;22.15;82.78;100604.66;5012870;28;20463;-72
2022/10/26 08:18:55;;;;;;;6.55;2.40;;;;;;;22.77;79.02;100616.03;5012965;28;20052;-72
2022/10/26 08:21:21;;;;;;;4.32;2.13;;;;;;;22.33;80.34;100607.78;5012529;28;20396;-70
2022/10/26 08:23:46;;;;;;;4.80;2.10;;;;;;;22.22;80.09;100567.03;5012211;28;20489;-70
2022/10/26 08:26:12;;;;;;;5.60;1.90;;;;;;;22.03;74.97;100543.28;5012574;28;20033;-72
2022/10/26 08:28:38;;;;;;;7.55;2.13;;;;;;;22.32;77.32;100581.03;5012134;28;20033;-71
2022/10/26 08:31:04;;;;;;;4.82;2.08;;;;;;;22.70;78.17;100601.00;5013316;28;20040;-72
2022/10/26 08:33:30;;;;;;;3.92;2.00;;;;;;;22.69;75.39;100617.50;5013226;28;20030;-70
2022/10/26 08:35:56;;;;;;;4.30;2.08;;;;;;;23.05;76.40;100622.75;5011937;28;20093;-70
2022/10/26 08:38:22;;;;;;;3.72;2.22;;;;;;;23.33;72.21;100626.88;5012505;28;20453;-70
2022/10/26 08:40:48;;;;;;;5.15;3.08;;;;;;;23.02;69.32;100617.78;5013490;28;20041;-71
2022/10/26 08:43:25;;;;;;;2.88;1.70;;;;;;;22.90;68.13;100624.63;5013703;28;20050;-71
2022/10/26 08:45:59;;;;;;;6.68;1.52;;;;;;;22.73;69.92;100627.56;5013530;28;20141;-72
2022/10/26 08:48:32;;;;;;;4.38;1.77;;;;;;;22.83;71.67;100631.19;5012336;28;20038;-72
2022/10/26 08:51:05;;;;;;;4.43;2.05;;;;;;;23.12;67.57;100608.41;5012189;28;20053;-72
2022/10/26 08:53:57;;;;;;;4.47;2.08;;;;;;;23.58;67.43;100632.84;5012584;28;20026;-72
2022/10/26 08:56:25;;;;;;;5.20;1.70;;;;;;;23.37;66.40;100586.81;5013654;28;20030;-72
2022/10/26 08:59:08;;;;;;;3.75;1.90;;;;;;;24.08;64.51;100637.84;5010836;28;20053;-72
2022/10/26 09:01:34;;;;;;;4.38;2.00;;;;;;;23.97;63.95;100629.13;5013113;28;20025;-71
2022/10/26 09:04:02;;;;;;;2.30;1.75;;;;;;;23.52;64.79;100638.47;5011948;28;20468;-72
2022/10/26 09:06:49;;;;;;;4.18;2.00;;;;;;;23.51;65.90;100635.97;5011820;28;20076;-71
2022/10/26 09:09:25;;;;;;;4.50;1.80;;;;;;;23.91;62.85;100586.25;5011704;28;20087;-71
2022/10/26 09:12:24;;;;;;;7.10;1.77;;;;;;;23.84;61.50;100631.81;5012149;28;20061;-72
2022/10/26 09:15:02;;;;;;;4.72;1.90;;;;;;;23.59;61.09;100633.69;5013045;28;20081;-72
2022/10/26 09:17:53;;;;;;;3.13;1.80;;;;;;;23.54;61.85;100547.47;5011270;28;20041;-71
2022/10/26 09:20:40;;;;;;;3.47;2.05;;;;;;;23.82;60.18;100636.28;5013212;28;20033;-70
2022/10/26 09:23:15;;;;;;;4.90;1.80;;;;;;;24.08;58.65;100624.84;5011651;28;20037;-74
2022/10/26 09:25:40;;;;;;;5.72;2.00;;;;;;;24.42;57.49;100575.53;5011440;28;20068;-72
2022/10/26 09:28:18;;;;;;;7.15;1.90;;;;;;;24.33;57.94;100571.03;5011326;28;20454;-71
2022/10/26 09:30:46;;;;;;;7.10;1.73;;;;;;;23.99;60.25;100570.06;5015318;28;20045;-72
2022/10/26 09:33:23;;;;;;;4.32;2.00;;;;;;;23.99;60.08;100620.28;5031301;28;20029;-70
2022/10/26 09:35:54;;;;;;;3.50;2.03;;;;;;;24.28;57.90;100633.78;5029023;28;20021;-70
2022/10/26 09:38:25;;;;;;;6.00;2.55;;;;;;;24.18;59.60;100590.38;5011062;28;20033;-70
2022/10/26 09:41:07;;;;;;;;;;;;;;;24.39;59.33;100618.19;5012639;28;20489;-71
2022/10/26 09:43:45;;;;;;;5.75;2.10;;;;;;;24.70;57.44;100633.13;5028290;28;20448;-71
2022/10/26 09:46:20;;;;;;;4.43;1.90;;;;;;;24.52;57.94;100611.13;5030367;28;20465;-70
2022/10/26 09:48:52;;;;;;;3.75;2.08;;;;;;;24.67;56.63;100611.75;5030322;28;20029;-70
2022/10/26 09:51:18;;;;;;;4.82;1.80;;;;;;;24.70;56.53;100621.94;5030708;28;20033;-70
2022/10/26 09:53:44;;;;;;;4.82;1.88;;;;;;;24.85;56.14;100624.22;5031982;28;20029;-69
2022/10/26 09:56:12;;;;;;;4.63;1.73;;;;;;;24.30;56.32;100569.50;5023640;28;20053;-70
2022/10/26 09:58:41;;;;;;;4.88;2.05;;;;;;;24.83;57.27;100625.28;5022357;28;20040;-69
2022/10/26 10:01:34;;;;;;;6.53;2.05;;;;;;;24.96;55.67;100584.34;5031840;28;20151;-71
2022/10/26 10:04:21;;;;;;;4.57;1.80;;;;;;;25.14;54.58;100605.50;5029987;28;20504;-69
2022/10/26 10:06:49;;;;;;;7.05;2.10;;;;;;;24.73;54.48;100572.28;5015995;28;20026;-68
2022/10/26 10:09:23;;;;;;;3.80;2.13;;;;;;;24.33;55.29;100561.47;5009747;28;20029;-69
2022/10/26 10:11:55;;;;;;;3.75;2.10;;;;;;;25.14;54.37;100575.09;5013302;28;20033;-70
2022/10/26 10:14:39;;;;;;;4.68;1.85;;;;;;;24.59;53.33;100546.47;5019194;28;20112;-70
2022/10/26 10:17:20;;;;;;;4.60;2.17;;;;;;;25.26;53.57;100602.75;5030619;28;20033;-70
2022/10/26 10:19:46;;;;;;;4.88;2.20;;;;;;;25.00;52.63;100546.72;5029909;28;20072;-70
2022/10/26 10:22:22;;;;;;;4.75;1.85;;;;;;;25.31;52.52;100543.34;5028432;28;20636;-70
2022/10/26 10:25:01;;;;;;;4.28;1.95;;;;;;;25.80;50.66;100597.56;5028784;28;20481;-71
2022/10/26 10:27:28;;;;;;;4.70;2.00;;;;;;;25.38;51.54;100549.72;5029314;28;20040;-71
2022/10/26 10:29:55;;;;;;;4.80;2.17;;;;;;;24.84;51.99;100541.03;5029840;28;20025;-70
2022/10/26 10:32:26;;;;;;;2.65;1.90;;;;;;;25.38;51.67;100587.94;5028965;28;20052;-71
2022/10/26 10:34:57;;;;;;;6.03;2.10;;;;;;;25.48;51.40;100545.44;5029334;28;20037;-69
2022/10/26 10:37:44;;;;;;;2.83;2.05;;;;;;;25.82;51.01;100577.41;5029430;28;20044;-69
2022/10/26 10:40:16;;;;;;;3.90;2.10;;;;;;;25.05;51.99;100556.78;5031104;28;20032;-71
2022/10/26 10:42:43;;;;;;;3.28;1.70;;;;;;;25.46;51.50;100585.59;5029631;28;20107;-69
2022/10/26 10:45:26;;;;;;;6.20;2.20;;;;;;;25.28;51.28;100590.44;5029664;28;20025;-69
2022/10/26 10:48:13;;;;;;;6.22;2.10;;;;;;;25.26;51.01;100549.84;5029591;28;20049;-70
2022/10/26 10:50:58;;;;;;;6.10;1.83;;;;;;;25.54;51.44;100568.41;5030146;28;20465;-70
2022/10/26 10:53:36;;;;;;;5.90;1.88;;;;;;;25.61;50.95;100585.19;5030826;28;20057;-70
2022/10/26 10:56:12;;;;;;;5.47;2.15;;;;;;;25.62;50.97;100575.59;5030934;28;20060;-70
2022/10/26 10:58:53;;;;;;;3.78;1.90;;;;;;;25.65;50.67;100581.38;5029781;28;20056;-70
2022/10/26 11:01:24;;;;;;;3.83;2.10;;;;;;;25.60;49.87;100528.00;5030571;28;20076;-69
2022/10/26 11:04:01;;;;;;;4.70;2.05;;;;;;;25.77;49.32;100519.63;5029442;28;20291;-69
2022/10/26 11:06:28;;;;;;;4.72;2.03;;;;;;;26.12;49.95;100567.13;5030144;28;20095;-71
2022/10/26 11:09:03;;;;;;;4.53;2.10;;;;;;;26.11;49.26;100560.22;5029441;28;20022;-69
2022/10/26 11:11:54;;;;;;;6.00;2.00;;;;;;;25.86;50.29;100551.91;5029244;28;20033;-69
2022/10/26 11:14:26;;;;;;;4.00;2.13;;;;;;;25.35;49.34;100518.72;5029760;28;20083;-70
2022/10/26 11:17:11;;;;;;;2.42;1.80;;;;;;;26.11;49.41;100560.22;5029395;28;20554;-70
2022/10/26 11:19:53;;;;;;;4.82;2.10;;;;;;;26.33;48.69;100565.31;5029140;28;20048;-69
2022/10/26 11:22:24;;;;;;;2.40;2.03;;;;;;;26.05;48.36;100550.28;5028368;28;20142;-69
2022/10/26 11:25:04;;;;;;;3.55;2.05;;;;;;;26.57;47.74;100562.41;5030051;28;20029;-69
2022/10/26 11:27:44;;;;;;;3.35;2.00;;;;;;;25.82;48.05;100511.44;5030338;28;20033;-69
2022/10/26 11:30:20;;;;;;;6.57;2.10;;;;;;;26.68;47.07;100559.72;5030558;28;20026;-69
2022/10/26 11:33:03;;;;;;;5.15;2.40;;;;;;;25.21;48.98;100498.16;5028769;28;20127;-70